sensor_id;sensor_type;location;lat;lon;timestamp;pressure;altitude;pressure_sealevel;temperature;humidity
76660;BME280;65579;45.534;6.212;2023-05-07T00:00:04;98090.35;;;19.16;42.96
76660;BME280;65579;45.534;6.212;2023-05-07T00:02:28;98089.56;;;19.05;42.74
76660;BME280;65579;45.534;6.212;2023-05-07T00:04:53;98084.99;;;19.14;43.04
76660;BME280;65579;45.534;6.212;2023-05-07T00:07:18;98086.70;;;19.57;42.55
76660;BME280;65579;45.534;6.212;2023-05-07T00:09:44;98085.40;;;19.04;42.57
76660;BME280;65579;45.534;6.212;2023-05-07T00:12:10;98084.26;;;18.73;43.12
76660;BME280;65579;45.534;6.212;2023-05-07T00:14:36;98083.48;;;19.90;42.44
76660;BME280;65579;45.534;6.212;2023-05-07T00:17:01;98080.69;;;20.44;39.83
76660;BME280;65579;45.534;6.212;2023-05-07T00:19:28;98078.42;;;19.81;41.02
76660;BME280;65579;45.534;6.212;2023-05-07T00:21:52;98080.63;;;19.32;41.48
76660;BME280;65579;45.534;6.212;2023-05-07T00:24:17;98083.75;;;18.68;43.48
76660;BME280;65579;45.534;6.212;2023-05-07T00:26:42;98089.04;;;18.50;45.96
76660;BME280;65579;45.534;6.212;2023-05-07T00:29:09;98089.64;;;18.32;46.71
76660;BME280;65579;45.534;6.212;2023-05-07T00:31:34;98097.62;;;18.19;46.22
76660;BME280;65579;45.534;6.212;2023-05-07T00:33:59;98096.74;;;18.38;45.28
76660;BME280;65579;45.534;6.212;2023-05-07T00:36:24;98094.54;;;18.83;44.78
76660;BME280;65579;45.534;6.212;2023-05-07T00:38:49;98095.82;;;18.36;44.49
76660;BME280;65579;45.534;6.212;2023-05-07T00:41:15;98097.13;;;18.54;43.82
76660;BME280;65579;45.534;6.212;2023-05-07T00:43:39;98096.71;;;18.96;44.12
76660;BME280;65579;45.534;6.212;2023-05-07T00:46:05;98093.05;;;18.60;43.98
76660;BME280;65579;45.534;6.212;2023-05-07T00:48:30;98091.59;;;18.83;43.15
76660;BME280;65579;45.534;6.212;2023-05-07T00:50:55;98091.75;;;18.56;43.26
76660;BME280;65579;45.534;6.212;2023-05-07T00:53:20;98094.08;;;18.31;44.80
76660;BME280;65579;45.534;6.212;2023-05-07T00:55:45;98095.11;;;18.29;44.97
76660;BME280;65579;45.534;6.212;2023-05-07T00:58:10;98099.41;;;18.35;44.93
76660;BME280;65579;45.534;6.212;2023-05-07T01:00:35;98102.94;;;18.46;44.66
76660;BME280;65579;45.534;6.212;2023-05-07T01:03:00;98099.52;;;18.52;44.43
76660;BME280;65579;45.534;6.212;2023-05-07T01:05:26;98099.27;;;18.35;44.87
76660;BME280;65579;45.534;6.212;2023-05-07T01:07:51;98097.79;;;18.93;44.02
76660;BME280;65579;45.534;6.212;2023-05-07T01:10:16;98097.33;;;18.72;44.60
76660;BME280;65579;45.534;6.212;2023-05-07T01:12:42;98099.06;;;19.24;43.38
76660;BME280;65579;45.534;6.212;2023-05-07T01:15:08;98100.40;;;19.35;42.83
76660;BME280;65579;45.534;6.212;2023-05-07T01:17:34;98102.81;;;19.28;43.54
76660;BME280;65579;45.534;6.212;2023-05-07T01:19:57;98106.58;;;19.44;44.51
76660;BME280;65579;45.534;6.212;2023-05-07T01:22:29;98104.83;;;18.47;45.73
76660;BME280;65579;45.534;6.212;2023-05-07T01:24:47;98102.71;;;18.43;45.84
76660;BME280;65579;45.534;6.212;2023-05-07T01:27:12;98104.45;;;17.90;46.48
76660;BME280;65579;45.534;6.212;2023-05-07T01:29:38;98102.00;;;18.46;46.54
76660;BME280;65579;45.534;6.212;2023-05-07T01:32:03;98101.19;;;17.69;46.71
76660;BME280;65579;45.534;6.212;2023-05-07T01:34:30;98100.23;;;18.86;44.63
76660;BME280;65579;45.534;6.212;2023-05-07T01:36:53;98101.46;;;18.83;43.93
76660;BME280;65579;45.534;6.212;2023-05-07T01:39:18;98109.04;;;19.01;44.73
76660;BME280;65579;45.534;6.212;2023-05-07T01:41:43;98116.22;;;18.22;44.65
76660;BME280;65579;45.534;6.212;2023-05-07T01:44:08;98121.50;;;17.54;45.91
76660;BME280;65579;45.534;6.212;2023-05-07T01:46:33;98119.61;;;17.85;45.59
76660;BME280;65579;45.534;6.212;2023-05-07T01:48:57;98114.16;;;18.56;44.30
76660;BME280;65579;45.534;6.212;2023-05-07T01:51:23;98111.90;;;18.45;43.39
76660;BME280;65579;45.534;6.212;2023-05-07T01:53:48;98114.87;;;18.34;43.57
76660;BME280;65579;45.534;6.212;2023-05-07T01:56:13;98117.59;;;18.88;42.77
76660;BME280;65579;45.534;6.212;2023-05-07T01:58:38;98123.35;;;18.79;43.41
76660;BME280;65579;45.534;6.212;2023-05-07T02:01:03;98132.18;;;18.07;44.87
76660;BME280;65579;45.534;6.212;2023-05-07T02:03:28;98138.38;;;18.28;45.06
76660;BME280;65579;45.534;6.212;2023-05-07T02:05:53;98139.96;;;18.34;45.57
76660;BME280;65579;45.534;6.212;2023-05-07T02:08:19;98140.55;;;18.77;44.43
76660;BME280;65579;45.534;6.212;2023-05-07T02:10:44;98141.52;;;18.24;45.35
76660;BME280;65579;45.534;6.212;2023-05-07T02:13:09;98140.53;;;18.01;45.86
76660;BME280;65579;45.534;6.212;2023-05-07T02:15:34;98137.40;;;18.69;44.55
76660;BME280;65579;45.534;6.212;2023-05-07T02:18:00;98135.10;;;18.93;45.00
76660;BME280;65579;45.534;6.212;2023-05-07T02:20:25;98132.85;;;18.77;44.68
76660;BME280;65579;45.534;6.212;2023-05-07T02:22:50;98133.20;;;18.07;45.72
76660;BME280;65579;45.534;6.212;2023-05-07T02:25:15;98132.35;;;18.46;45.32
76660;BME280;65579;45.534;6.212;2023-05-07T02:27:40;98138.09;;;17.79;46.08
76660;BME280;65579;45.534;6.212;2023-05-07T02:30:06;98143.33;;;18.16;46.35
76660;BME280;65579;45.534;6.212;2023-05-07T02:32:30;98140.59;;;18.36;45.72
76660;BME280;65579;45.534;6.212;2023-05-07T02:34:55;98140.19;;;18.92;45.31
76660;BME280;65579;45.534;6.212;2023-05-07T02:37:20;98137.21;;;17.84;46.24
76660;BME280;65579;45.534;6.212;2023-05-07T02:39:46;98139.16;;;17.97;46.20
76660;BME280;65579;45.534;6.212;2023-05-07T02:42:11;98143.48;;;18.09;46.65
76660;BME280;65579;45.534;6.212;2023-05-07T02:44:37;98147.19;;;17.64;48.09
76660;BME280;65579;45.534;6.212;2023-05-07T02:47:03;98149.57;;;17.52;48.88
76660;BME280;65579;45.534;6.212;2023-05-07T02:49:27;98151.20;;;16.85;50.47
76660;BME280;65579;45.534;6.212;2023-05-07T02:51:52;98152.20;;;16.24;51.49
76660;BME280;65579;45.534;6.212;2023-05-07T02:54:18;98154.85;;;16.46;50.23
76660;BME280;65579;45.534;6.212;2023-05-07T02:56:43;98156.10;;;17.73;48.07
76660;BME280;65579;45.534;6.212;2023-05-07T02:59:08;98158.35;;;18.10;47.57
76660;BME280;65579;45.534;6.212;2023-05-07T03:01:33;98155.39;;;17.38;47.75
76660;BME280;65579;45.534;6.212;2023-05-07T03:03:58;98155.26;;;17.72;46.74
76660;BME280;65579;45.534;6.212;2023-05-07T03:06:23;98155.39;;;17.96;46.39
76660;BME280;65579;45.534;6.212;2023-05-07T03:08:49;98150.27;;;18.08;45.92
76660;BME280;65579;45.534;6.212;2023-05-07T03:11:14;98154.54;;;18.06;45.57
76660;BME280;65579;45.534;6.212;2023-05-07T03:13:39;98155.90;;;17.94;45.96
76660;BME280;65579;45.534;6.212;2023-05-07T03:16:04;98149.85;;;18.52;44.83
76660;BME280;65579;45.534;6.212;2023-05-07T03:18:29;98155.74;;;18.26;46.05
76660;BME280;65579;45.534;6.212;2023-05-07T03:20:54;98154.14;;;17.49;47.48
76660;BME280;65579;45.534;6.212;2023-05-07T03:23:19;98158.02;;;17.94;47.00
76660;BME280;65579;45.534;6.212;2023-05-07T03:25:44;98160.62;;;18.61;45.56
76660;BME280;65579;45.534;6.212;2023-05-07T03:28:10;98160.51;;;18.02;45.93
76660;BME280;65579;45.534;6.212;2023-05-07T03:30:35;98159.82;;;17.91;45.44
76660;BME280;65579;45.534;6.212;2023-05-07T03:33:00;98161.22;;;18.31;45.64
76660;BME280;65579;45.534;6.212;2023-05-07T03:35:26;98163.99;;;17.57;46.69
76660;BME280;65579;45.534;6.212;2023-05-07T03:37:51;98169.05;;;17.38;47.35
76660;BME280;65579;45.534;6.212;2023-05-07T03:40:16;98165.75;;;16.63;48.87
76660;BME280;65579;45.534;6.212;2023-05-07T03:42:41;98165.18;;;16.72;47.51
76660;BME280;65579;45.534;6.212;2023-05-07T03:45:07;98168.94;;;17.15;47.37
76660;BME280;65579;45.534;6.212;2023-05-07T03:47:31;98169.81;;;17.55;46.87
76660;BME280;65579;45.534;6.212;2023-05-07T03:49:56;98173.26;;;17.46;46.94
76660;BME280;65579;45.534;6.212;2023-05-07T03:52:21;98171.58;;;16.41;48.64
76660;BME280;65579;45.534;6.212;2023-05-07T03:54:46;98173.92;;;17.29;48.54
76660;BME280;65579;45.534;6.212;2023-05-07T03:57:11;98171.95;;;17.24;48.76
76660;BME280;65579;45.534;6.212;2023-05-07T03:59:36;98172.68;;;17.50;48.22
76660;BME280;65579;45.534;6.212;2023-05-07T04:02:02;98172.01;;;17.38;47.92
76660;BME280;65579;45.534;6.212;2023-05-07T04:04:27;98167.16;;;17.58;47.52
76660;BME280;65579;45.534;6.212;2023-05-07T04:06:53;98167.67;;;17.86;47.54
76660;BME280;65579;45.534;6.212;2023-05-07T04:09:18;98168.27;;;17.48;47.77
76660;BME280;65579;45.534;6.212;2023-05-07T04:11:43;98173.17;;;16.96;47.94
76660;BME280;65579;45.534;6.212;2023-05-07T04:14:08;98173.42;;;17.29;47.40
76660;BME280;65579;45.534;6.212;2023-05-07T04:16:35;98172.26;;;17.33;47.00
76660;BME280;65579;45.534;6.212;2023-05-07T04:18:59;98173.89;;;17.98;46.65
76660;BME280;65579;45.534;6.212;2023-05-07T04:21:24;98178.85;;;17.12;47.26
76660;BME280;65579;45.534;6.212;2023-05-07T04:23:50;98177.39;;;17.88;46.62
76660;BME280;65579;45.534;6.212;2023-05-07T04:26:14;98178.38;;;16.74;47.96
76660;BME280;65579;45.534;6.212;2023-05-07T04:28:40;98178.21;;;17.76;45.94
76660;BME280;65579;45.534;6.212;2023-05-07T04:31:05;98183.29;;;17.53;47.04
76660;BME280;65579;45.534;6.212;2023-05-07T04:33:30;98183.64;;;17.39;46.86
76660;BME280;65579;45.534;6.212;2023-05-07T04:35:55;98184.10;;;17.44;46.81
76660;BME280;65579;45.534;6.212;2023-05-07T04:38:20;98186.37;;;17.28;46.45
76660;BME280;65579;45.534;6.212;2023-05-07T04:40:45;98191.11;;;17.00;47.68
76660;BME280;65579;45.534;6.212;2023-05-07T04:43:10;98196.38;;;16.68;47.83
76660;BME280;65579;45.534;6.212;2023-05-07T04:45:35;98197.94;;;17.03;47.33
76660;BME280;65579;45.534;6.212;2023-05-07T04:48:00;98198.10;;;17.82;47.06
76660;BME280;65579;45.534;6.212;2023-05-07T04:50:25;98196.74;;;17.35;48.31
76660;BME280;65579;45.534;6.212;2023-05-07T04:52:50;98193.90;;;16.97;49.21
76660;BME280;65579;45.534;6.212;2023-05-07T04:55:16;98194.20;;;16.98;48.24
76660;BME280;65579;45.534;6.212;2023-05-07T04:57:41;98194.06;;;16.76;49.08
76660;BME280;65579;45.534;6.212;2023-05-07T05:00:07;98191.43;;;17.77;46.45
76660;BME280;65579;45.534;6.212;2023-05-07T05:02:31;98186.74;;;17.33;46.84
76660;BME280;65579;45.534;6.212;2023-05-07T05:04:56;98184.01;;;17.54;46.52
76660;BME280;65579;45.534;6.212;2023-05-07T05:07:22;98183.52;;;18.10;46.35
76660;BME280;65579;45.534;6.212;2023-05-07T05:09:47;98188.72;;;17.77;46.58
76660;BME280;65579;45.534;6.212;2023-05-07T05:12:12;98185.20;;;16.87;48.82
76660;BME280;65579;45.534;6.212;2023-05-07T05:14:37;98185.23;;;16.49;49.70
76660;BME280;65579;45.534;6.212;2023-05-07T05:17:02;98188.10;;;17.01;48.63
76660;BME280;65579;45.534;6.212;2023-05-07T05:19:28;98189.31;;;17.25;47.86
76660;BME280;65579;45.534;6.212;2023-05-07T05:21:53;98185.76;;;17.98;47.03
76660;BME280;65579;45.534;6.212;2023-05-07T05:24:18;98185.72;;;17.75;47.39
76660;BME280;65579;45.534;6.212;2023-05-07T05:26:44;98185.61;;;17.89;46.20
76660;BME280;65579;45.534;6.212;2023-05-07T05:29:09;98187.63;;;17.82;46.67
76660;BME280;65579;45.534;6.212;2023-05-07T05:31:34;98188.46;;;17.42;47.55
76660;BME280;65579;45.534;6.212;2023-05-07T05:33:59;98187.07;;;17.89;46.89
76660;BME280;65579;45.534;6.212;2023-05-07T05:36:24;98189.67;;;17.97;45.51
76660;BME280;65579;45.534;6.212;2023-05-07T05:38:49;98189.95;;;17.72;46.67
76660;BME280;65579;45.534;6.212;2023-05-07T05:41:15;98190.72;;;17.63;46.80
76660;BME280;65579;45.534;6.212;2023-05-07T05:43:43;98190.66;;;17.65;46.73
76660;BME280;65579;45.534;6.212;2023-05-07T05:46:06;98191.79;;;18.08;45.97
76660;BME280;65579;45.534;6.212;2023-05-07T05:48:30;98196.60;;;17.59;46.86
76660;BME280;65579;45.534;6.212;2023-05-07T05:50:55;98196.55;;;17.83;47.64
76660;BME280;65579;45.534;6.212;2023-05-07T05:53:20;98198.15;;;18.38;47.47
76660;BME280;65579;45.534;6.212;2023-05-07T05:55:45;98200.32;;;16.93;51.10
76660;BME280;65579;45.534;6.212;2023-05-07T05:58:10;98203.99;;;17.98;49.10
76660;BME280;65579;45.534;6.212;2023-05-07T06:00:35;98204.04;;;17.85;48.42
76660;BME280;65579;45.534;6.212;2023-05-07T06:03:00;98204.89;;;18.09;47.48
76660;BME280;65579;45.534;6.212;2023-05-07T06:05:25;98204.49;;;18.31;46.60
76660;BME280;65579;45.534;6.212;2023-05-07T06:07:50;98206.06;;;18.29;46.36
76660;BME280;65579;45.534;6.212;2023-05-07T06:10:15;98205.58;;;18.32;46.24
76660;BME280;65579;45.534;6.212;2023-05-07T06:12:40;98206.02;;;18.51;47.20
76660;BME280;65579;45.534;6.212;2023-05-07T06:15:06;98200.83;;;18.58;45.31
76660;BME280;65579;45.534;6.212;2023-05-07T06:17:31;98201.28;;;18.87;45.40
76660;BME280;65579;45.534;6.212;2023-05-07T06:19:56;98199.82;;;18.97;45.86
76660;BME280;65579;45.534;6.212;2023-05-07T06:22:22;98199.81;;;19.10;44.30
76660;BME280;65579;45.534;6.212;2023-05-07T06:24:47;98198.19;;;19.46;43.99
76660;BME280;65579;45.534;6.212;2023-05-07T06:27:12;98193.27;;;19.32;43.53
76660;BME280;65579;45.534;6.212;2023-05-07T06:29:38;98195.46;;;18.90;42.94
76660;BME280;65579;45.534;6.212;2023-05-07T06:32:08;98201.22;;;19.00;43.81
76660;BME280;65579;45.534;6.212;2023-05-07T06:34:28;98206.60;;;19.23;43.89
76660;BME280;65579;45.534;6.212;2023-05-07T06:36:52;98206.81;;;19.06;42.98
76660;BME280;65579;45.534;6.212;2023-05-07T06:39:18;98205.86;;;19.20;43.56
76660;BME280;65579;45.534;6.212;2023-05-07T06:41:43;98207.12;;;18.56;44.19
76660;BME280;65579;45.534;6.212;2023-05-07T06:44:08;98210.48;;;18.58;44.90
76660;BME280;65579;45.534;6.212;2023-05-07T06:46:33;98205.13;;;18.74;45.08
76660;BME280;65579;45.534;6.212;2023-05-07T06:48:58;98201.89;;;18.63;45.40
76660;BME280;65579;45.534;6.212;2023-05-07T06:51:23;98203.57;;;18.67;45.38
76660;BME280;65579;45.534;6.212;2023-05-07T06:53:48;98201.60;;;19.28;44.48
76660;BME280;65579;45.534;6.212;2023-05-07T06:56:14;98195.78;;;19.11;44.93
76660;BME280;65579;45.534;6.212;2023-05-07T06:58:38;98193.61;;;18.70;45.00
76660;BME280;65579;45.534;6.212;2023-05-07T07:01:04;98193.79;;;19.22;42.47
76660;BME280;65579;45.534;6.212;2023-05-07T07:03:28;98191.91;;;18.94;42.42
76660;BME280;65579;45.534;6.212;2023-05-07T07:05:54;98191.36;;;19.22;43.19
76660;BME280;65579;45.534;6.212;2023-05-07T07:08:19;98188.09;;;19.63;41.53
76660;BME280;65579;45.534;6.212;2023-05-07T07:10:44;98185.79;;;18.71;42.59
76660;BME280;65579;45.534;6.212;2023-05-07T07:13:09;98187.14;;;18.69;42.09
76660;BME280;65579;45.534;6.212;2023-05-07T07:15:34;98189.89;;;19.06;41.79
76660;BME280;65579;45.534;6.212;2023-05-07T07:17:59;98193.61;;;19.43;41.99
76660;BME280;65579;45.534;6.212;2023-05-07T07:20:24;98194.39;;;19.74;41.53
76660;BME280;65579;45.534;6.212;2023-05-07T07:22:49;98191.68;;;20.26;40.82
76660;BME280;65579;45.534;6.212;2023-05-07T07:25:14;98191.66;;;19.84;41.84
76660;BME280;65579;45.534;6.212;2023-05-07T07:27:39;98188.23;;;20.41;40.99
76660;BME280;65579;45.534;6.212;2023-05-07T07:30:05;98186.26;;;21.17;38.27
76660;BME280;65579;45.534;6.212;2023-05-07T07:32:30;98184.57;;;21.28;38.15
76660;BME280;65579;45.534;6.212;2023-05-07T07:34:56;98183.78;;;21.33;38.05
76660;BME280;65579;45.534;6.212;2023-05-07T07:37:21;98185.70;;;21.56;39.09
76660;BME280;65579;45.534;6.212;2023-05-07T07:39:47;98188.04;;;20.87;38.70
76660;BME280;65579;45.534;6.212;2023-05-07T07:42:13;98185.42;;;21.18;38.19
76660;BME280;65579;45.534;6.212;2023-05-07T07:44:39;98186.11;;;20.89;39.35
76660;BME280;65579;45.534;6.212;2023-05-07T07:47:05;98183.35;;;20.89;39.45
76660;BME280;65579;45.534;6.212;2023-05-07T07:49:31;98182.67;;;21.17;38.81
76660;BME280;65579;45.534;6.212;2023-05-07T07:51:57;98181.02;;;21.53;38.52
76660;BME280;65579;45.534;6.212;2023-05-07T07:54:23;98183.12;;;22.14;37.07
76660;BME280;65579;45.534;6.212;2023-05-07T07:56:48;98186.29;;;22.02;37.02
76660;BME280;65579;45.534;6.212;2023-05-07T07:59:14;98190.58;;;21.99;37.81
76660;BME280;65579;45.534;6.212;2023-05-07T08:01:40;98190.28;;;21.82;37.82
76660;BME280;65579;45.534;6.212;2023-05-07T08:04:06;98189.47;;;22.40;36.94
76660;BME280;65579;45.534;6.212;2023-05-07T08:06:32;98182.84;;;22.21;35.71
76660;BME280;65579;45.534;6.212;2023-05-07T08:08:58;98181.24;;;22.85;36.71
76660;BME280;65579;45.534;6.212;2023-05-07T08:11:23;98184.70;;;22.77;35.39
76660;BME280;65579;45.534;6.212;2023-05-07T08:13:49;98186.32;;;23.03;35.52
76660;BME280;65579;45.534;6.212;2023-05-07T08:16:14;98186.99;;;22.99;34.98
76660;BME280;65579;45.534;6.212;2023-05-07T08:18:40;98182.69;;;23.23;35.51
76660;BME280;65579;45.534;6.212;2023-05-07T08:21:05;98183.79;;;23.24;35.25
76660;BME280;65579;45.534;6.212;2023-05-07T08:23:31;98184.73;;;23.36;36.71
76660;BME280;65579;45.534;6.212;2023-05-07T08:25:57;98190.01;;;23.00;36.05
76660;BME280;65579;45.534;6.212;2023-05-07T08:28:22;98186.58;;;23.54;35.28
76660;BME280;65579;45.534;6.212;2023-05-07T08:30:48;98194.13;;;22.90;36.69
76660;BME280;65579;45.534;6.212;2023-05-07T08:33:14;98201.99;;;22.33;37.83
76660;BME280;65579;45.534;6.212;2023-05-07T08:35:40;98200.77;;;23.19;36.73
76660;BME280;65579;45.534;6.212;2023-05-07T08:38:06;98196.58;;;23.79;35.96
76660;BME280;65579;45.534;6.212;2023-05-07T08:40:36;98196.49;;;23.30;34.75
76660;BME280;65579;45.534;6.212;2023-05-07T08:42:57;98195.25;;;24.03;35.47
76660;BME280;65579;45.534;6.212;2023-05-07T08:45:24;98196.94;;;23.96;34.68
76660;BME280;65579;45.534;6.212;2023-05-07T08:47:55;98199.02;;;24.22;34.19
76660;BME280;65579;45.534;6.212;2023-05-07T08:50:14;98199.61;;;24.35;34.42
76660;BME280;65579;45.534;6.212;2023-05-07T08:52:40;98201.99;;;23.60;35.07
76660;BME280;65579;45.534;6.212;2023-05-07T08:55:07;98202.98;;;23.85;35.54
76660;BME280;65579;45.534;6.212;2023-05-07T08:57:31;98200.96;;;24.29;32.95
76660;BME280;65579;45.534;6.212;2023-05-07T08:59:57;98201.22;;;24.23;34.16
76660;BME280;65579;45.534;6.212;2023-05-07T09:02:23;98196.83;;;24.30;34.18
76660;BME280;65579;45.534;6.212;2023-05-07T09:04:49;98196.17;;;23.83;34.87
76660;BME280;65579;45.534;6.212;2023-05-07T09:07:15;98194.81;;;24.55;33.57
76660;BME280;65579;45.534;6.212;2023-05-07T09:09:40;98194.34;;;23.76;35.95
76660;BME280;65579;45.534;6.212;2023-05-07T09:12:11;98194.19;;;24.54;32.16
76660;BME280;65579;45.534;6.212;2023-05-07T09:43:41;98177.96;;;23.72;32.61
76660;BME280;65579;45.534;6.212;2023-05-07T09:46:07;98182.80;;;23.98;31.34
76660;BME280;65579;45.534;6.212;2023-05-07T09:48:34;98177.02;;;23.80;31.23
76660;BME280;65579;45.534;6.212;2023-05-07T09:51:01;98175.81;;;23.62;30.75
76660;BME280;65579;45.534;6.212;2023-05-07T09:53:24;98176.52;;;23.65;32.04
76660;BME280;65579;45.534;6.212;2023-05-07T09:55:49;98175.84;;;24.08;31.26
76660;BME280;65579;45.534;6.212;2023-05-07T09:58:15;98174.58;;;23.91;31.17
76660;BME280;65579;45.534;6.212;2023-05-07T10:00:41;98169.28;;;23.56;32.46
76660;BME280;65579;45.534;6.212;2023-05-07T10:03:08;98171.76;;;23.77;32.03
76660;BME280;65579;45.534;6.212;2023-05-07T10:05:33;98177.44;;;23.11;32.67
76660;BME280;65579;45.534;6.212;2023-05-07T10:07:58;98181.14;;;23.09;33.06
76660;BME280;65579;45.534;6.212;2023-05-07T10:10:24;98187.56;;;22.51;33.83
76660;BME280;65579;45.534;6.212;2023-05-07T10:12:49;98189.67;;;22.32;36.15
76660;BME280;65579;45.534;6.212;2023-05-07T10:15:15;98192.70;;;22.23;35.31
76660;BME280;65579;45.534;6.212;2023-05-07T10:17:41;98191.28;;;20.65;38.67
76660;BME280;65579;45.534;6.212;2023-05-07T10:20:07;98197.32;;;19.72;39.23
76660;BME280;65579;45.534;6.212;2023-05-07T10:22:38;98193.23;;;19.66;40.22
76660;BME280;65579;45.534;6.212;2023-05-07T10:25:00;98199.03;;;19.33;41.92
76660;BME280;65579;45.534;6.212;2023-05-07T10:27:24;98201.50;;;19.74;41.22
76660;BME280;65579;45.534;6.212;2023-05-07T10:29:55;98206.96;;;19.57;41.32
76660;BME280;65579;45.534;6.212;2023-05-07T10:34:44;98222.36;;;18.67;44.46
76660;BME280;65579;45.534;6.212;2023-05-07T10:37:08;98221.11;;;18.75;45.06
76660;BME280;65579;45.534;6.212;2023-05-07T10:39:33;98229.06;;;18.78;45.60
76660;BME280;65579;45.534;6.212;2023-05-07T10:42:08;98237.71;;;18.16;46.24
76660;BME280;65579;45.534;6.212;2023-05-07T10:44:26;98238.48;;;18.77;46.32
76660;BME280;65579;45.534;6.212;2023-05-07T10:47:04;98247.04;;;18.79;45.64
76660;BME280;65579;45.534;6.212;2023-05-07T10:49:16;98248.81;;;17.89;47.23
76660;BME280;65579;45.534;6.212;2023-05-07T10:51:41;98257.83;;;17.82;48.17
76660;BME280;65579;45.534;6.212;2023-05-07T10:54:19;98262.99;;;18.29;46.38
76660;BME280;65579;45.534;6.212;2023-05-07T10:56:33;98262.22;;;18.76;45.84
76660;BME280;65579;45.534;6.212;2023-05-07T11:06:16;98289.02;;;18.13;48.77
76660;BME280;65579;45.534;6.212;2023-05-07T11:08:54;98294.32;;;18.68;47.03
76660;BME280;65579;45.534;6.212;2023-05-07T11:11:08;98290.13;;;18.72;46.74
76660;BME280;65579;45.534;6.212;2023-05-07T11:13:44;98293.54;;;19.06;45.61
76660;BME280;65579;45.534;6.212;2023-05-07T11:15:59;98293.32;;;18.47;45.35
76660;BME280;65579;45.534;6.212;2023-05-07T11:18:24;98292.66;;;19.92;43.23
76660;BME280;65579;45.534;6.212;2023-05-07T11:20:53;98295.42;;;18.62;46.07
76660;BME280;65579;45.534;6.212;2023-05-07T11:25:42;98290.96;;;19.77;44.40
76660;BME280;65579;45.534;6.212;2023-05-07T11:28:08;98292.71;;;19.69;44.47
76660;BME280;65579;45.534;6.212;2023-05-07T11:30:33;98296.73;;;18.75;47.55
76660;BME280;65579;45.534;6.212;2023-05-07T11:32:59;98298.56;;;19.00;47.78
76660;BME280;65579;45.534;6.212;2023-05-07T11:35:25;98297.94;;;19.89;46.35
76660;BME280;65579;45.534;6.212;2023-05-07T11:37:57;98299.59;;;19.40;46.47
76660;BME280;65579;45.534;6.212;2023-05-07T11:40:16;98298.76;;;19.36;46.94
76660;BME280;65579;45.534;6.212;2023-05-07T11:42:42;98301.08;;;18.92;48.34
76660;BME280;65579;45.534;6.212;2023-05-07T11:45:08;98301.52;;;18.77;49.08
76660;BME280;65579;45.534;6.212;2023-05-07T11:47:34;98305.24;;;18.17;50.53
76660;BME280;65579;45.534;6.212;2023-05-07T11:50:04;98307.91;;;18.16;51.31
76660;BME280;65579;45.534;6.212;2023-05-07T11:52:25;98310.21;;;18.86;49.78
76660;BME280;65579;45.534;6.212;2023-05-07T11:54:52;98317.22;;;18.47;50.53
76660;BME280;65579;45.534;6.212;2023-05-07T11:57:16;98319.97;;;18.53;50.96
76660;BME280;65579;45.534;6.212;2023-05-07T11:59:42;98319.99;;;19.03;50.04
76660;BME280;65579;45.534;6.212;2023-05-07T12:02:08;98315.23;;;20.19;46.78
76660;BME280;65579;45.534;6.212;2023-05-07T12:04:33;98315.33;;;19.97;46.98
76660;BME280;65579;45.534;6.212;2023-05-07T12:06:59;98318.82;;;20.37;45.96
76660;BME280;65579;45.534;6.212;2023-05-07T12:09:25;98317.22;;;20.37;45.86
76660;BME280;65579;45.534;6.212;2023-05-07T12:11:52;98321.67;;;20.27;47.04
76660;BME280;65579;45.534;6.212;2023-05-07T12:14:17;98323.19;;;20.64;45.35
76660;BME280;65579;45.534;6.212;2023-05-07T12:16:43;98324.00;;;20.68;44.54
76660;BME280;65579;45.534;6.212;2023-05-07T12:19:08;98331.34;;;20.23;46.31
76660;BME280;65579;45.534;6.212;2023-05-07T12:21:34;98335.46;;;19.97;46.79
76660;BME280;65579;45.534;6.212;2023-05-07T12:24:00;98338.26;;;19.97;47.43
76660;BME280;65579;45.534;6.212;2023-05-07T12:26:25;98342.38;;;18.86;46.98
76660;BME280;65579;45.534;6.212;2023-05-07T12:28:50;98340.62;;;20.33;45.89
76660;BME280;65579;45.534;6.212;2023-05-07T12:31:16;98345.65;;;20.86;44.85
76660;BME280;65579;45.534;6.212;2023-05-07T12:33:42;98342.41;;;20.72;45.16
76660;BME280;65579;45.534;6.212;2023-05-07T12:36:08;98344.03;;;20.59;45.84
76660;BME280;65579;45.534;6.212;2023-05-07T12:38:37;98341.48;;;20.95;45.04
76660;BME280;65579;45.534;6.212;2023-05-07T12:40:58;98341.49;;;20.13;46.26
76660;BME280;65579;45.534;6.212;2023-05-07T12:43:25;98343.09;;;20.69;45.49
76660;BME280;65579;45.534;6.212;2023-05-07T12:45:51;98341.80;;;20.56;45.56
76660;BME280;65579;45.534;6.212;2023-05-07T12:48:17;98341.12;;;20.43;44.57
76660;BME280;65579;45.534;6.212;2023-05-07T12:50:42;98340.51;;;20.51;44.36
76660;BME280;65579;45.534;6.212;2023-05-07T12:53:12;98344.50;;;20.74;44.21
76660;BME280;65579;45.534;6.212;2023-05-07T12:55:42;98343.30;;;21.40;43.88
76660;BME280;65579;45.534;6.212;2023-05-07T12:58:01;98342.40;;;20.53;44.16
76660;BME280;65579;45.534;6.212;2023-05-07T13:00:35;98340.26;;;20.51;44.35
76660;BME280;65579;45.534;6.212;2023-05-07T13:02:51;98338.75;;;20.43;45.24
76660;BME280;65579;45.534;6.212;2023-05-07T13:05:16;98337.51;;;20.38;45.75
76660;BME280;65579;45.534;6.212;2023-05-07T13:10:09;98338.95;;;20.79;44.38
76660;BME280;65579;45.534;6.212;2023-05-07T13:12:34;98338.48;;;21.08;43.74
76660;BME280;65579;45.534;6.212;2023-05-07T13:15:00;98336.77;;;21.09;43.36
76660;BME280;65579;45.534;6.212;2023-05-07T13:17:26;98341.08;;;21.19;43.22
76660;BME280;65579;45.534;6.212;2023-05-07T13:19:51;98342.04;;;21.50;43.12
76660;BME280;65579;45.534;6.212;2023-05-07T13:22:17;98333.98;;;20.36;44.44
76660;BME280;65579;45.534;6.212;2023-05-07T13:24:43;98336.80;;;19.91;45.41
76660;BME280;65579;45.534;6.212;2023-05-07T13:27:09;98339.54;;;20.79;44.03
76660;BME280;65579;45.534;6.212;2023-05-07T13:29:35;98344.37;;;20.48;44.12
76660;BME280;65579;45.534;6.212;2023-05-07T13:32:00;98347.54;;;20.53;44.57